Time;durP1;ratioP1;P1;durP2;ratioP2;P2;SDS_P1;SDS_P2;PMS_P1;PMS_P2;Temp;Humidity;BMP_temperature;BMP_pressure;BME280_temperature;BME280_humidity;BME280_pressure;Samples;Min_cycle;Max_cycle;Signal;HPM_P1;HPM_P2
2023/06/11 00:01:29;;;;;;;7.5;6.4;;;;;;;;;;;;;
2023/06/11 00:04:05;;;;;;;8.9;6.3;;;;;;;;;;;;;
2023/06/11 00:06:30;;;;;;;8.2;5.9;;;;;;;;;;;;;
2023/06/11 00:08:55;;;;;;;6.7;5.7;;;;;;;;;;;;;
2023/06/11 00:11:21;;;;;;;6.3;5.6;;;;;;;;;;;;;
2023/06/11 00:13:54;;;;;;;6.2;5.6;;;;;;;;;;;;;
2023/06/11 00:16:20;;;;;;;6.1;5.5;;;;;;;;;;;;;
2023/06/11 00:18:48;;;;;;;6.6;5.9;;;;;;;;;;;;;
2023/06/11 00:21:17;;;;;;;6.7;5.5;;;;;;;;;;;;;
2023/06/11 00:23:48;;;;;;;6.2;5.5;;;;;;;;;;;;;
2023/06/11 00:26:14;;;;;;;7.1;5.7;;;;;;;;;;;;;
2023/06/11 00:28:41;;;;;;;7.2;6.1;;;;;;;;;;;;;
2023/06/11 00:31:09;;;;;;;7.2;5.6;;;;;;;;;;;;;
2023/06/11 00:33:37;;;;;;;6.5;5.8;;;;;;;;;;;;;
2023/06/11 00:36:11;;;;;;;7.5;6.2;;;;;;;;;;;;;
2023/06/11 00:38:40;;;;;;;6.1;5.3;;;;;;;;;;;;;
2023/06/11 00:41:05;;;;;;;7.7;5.7;;;;;;;;;;;;;
2023/06/11 00:43:30;;;;;;;6.5;5.3;;;;;;;;;;;;;
2023/06/11 00:45:56;;;;;;;6.2;5.5;;;;;;;;;;;;;
2023/06/11 00:48:21;;;;;;;6.2;5.6;;;;;;;;;;;;;
2023/06/11 00:50:47;;;;;;;6.9;6.2;;;;;;;;;;;;;
2023/06/11 00:53:10;;;;;;;7.3;5.9;;;;;;;;;;;;;
2023/06/11 00:55:37;;;;;;;8;6.3;;;;;;;;;;;;;
2023/06/11 00:58:02;;;;;;;7.9;6.2;;;;;;;;;;;;;
2023/06/11 01:00:27;;;;;;;6.7;5.8;;;;;;;;;;;;;
2023/06/11 01:02:53;;;;;;;6.5;5.9;;;;;;;;;;;;;
2023/06/11 01:05:21;;;;;;;6.8;6;;;;;;;;;;;;;
2023/06/11 01:07:50;;;;;;;6.1;5.5;;;;;;;;;;;;;
2023/06/11 01:10:08;;;;;;;6.6;5.4;;;;;;;;;;;;;
2023/06/11 01:12:32;;;;;;;7.2;6.2;;;;;;;;;;;;;
2023/06/11 01:14:58;;;;;;;6.5;5.9;;;;;;;;;;;;;
2023/06/11 01:17:23;;;;;;;7.2;6.5;;;;;;;;;;;;;
2023/06/11 01:19:50;;;;;;;7.3;6;;;;;;;;;;;;;
2023/06/11 01:22:15;;;;;;;6.4;5.6;;;;;;;;;;;;;
2023/06/11 01:24:40;;;;;;;6.1;5.5;;;;;;;;;;;;;
2023/06/11 01:27:04;;;;;;;7.4;5.9;;;;;;;;;;;;;
2023/06/11 01:29:29;;;;;;;5.7;5.1;;;;;;;;;;;;;
2023/06/11 01:31:55;;;;;;;7;5.3;;;;;;;;;;;;;
2023/06/11 01:34:20;;;;;;;6.9;6;;;;;;;;;;;;;
2023/06/11 01:36:46;;;;;;;7.2;6.1;;;;;;;;;;;;;
2023/06/11 01:39:11;;;;;;;7.7;5.9;;;;;;;;;;;;;
2023/06/11 01:41:37;;;;;;;6.8;5.8;;;;;;;;;;;;;
2023/06/11 01:44:02;;;;;;;6.2;5.6;;;;;;;;;;;;;
2023/06/11 01:46:27;;;;;;;5.9;5.3;;;;;;;;;;;;;
2023/06/11 01:48:53;;;;;;;6.6;5.6;;;;;;;;;;;;;
2023/06/11 01:51:20;;;;;;;7.1;5.7;;;;;;;;;;;;;
2023/06/11 01:53:45;;;;;;;6;5.4;;;;;;;;;;;;;
2023/06/11 01:56:11;;;;;;;7.4;6;;;;;;;;;;;;;
2023/06/11 01:58:37;;;;;;;6.1;5.5;;;;;;;;;;;;;
2023/06/11 02:01:02;;;;;;;6.6;5.8;;;;;;;;;;;;;
2023/06/11 02:03:28;;;;;;;7.6;5.7;;;;;;;;;;;;;
2023/06/11 02:05:53;;;;;;;6.5;5.9;;;;;;;;;;;;;
2023/06/11 02:08:19;;;;;;;7;6;;;;;;;;;;;;;
2023/06/11 02:10:44;;;;;;;6.8;5.8;;;;;;;;;;;;;
2023/06/11 02:13:11;;;;;;;6.8;5.7;;;;;;;;;;;;;
2023/06/11 02:15:36;;;;;;;7.3;6.5;;;;;;;;;;;;;
2023/06/11 02:18:01;;;;;;;8.3;6.2;;;;;;;;;;;;;
2023/06/11 02:20:26;;;;;;;6.6;5.8;;;;;;;;;;;;;
2023/06/11 02:22:52;;;;;;;8.3;6.5;;;;;;;;;;;;;
2023/06/11 02:25:17;;;;;;;7;6.2;;;;;;;;;;;;;
2023/06/11 02:27:44;;;;;;;7;5.9;;;;;;;;;;;;;
2023/06/11 02:30:09;;;;;;;7.2;5.8;;;;;;;;;;;;;
2023/06/11 02:32:36;;;;;;;8.1;6.5;;;;;;;;;;;;;
2023/06/11 02:35:01;;;;;;;6.6;5.9;;;;;;;;;;;;;
2023/06/11 02:37:28;;;;;;;6.7;5.7;;;;;;;;;;;;;
2023/06/11 02:39:53;;;;;;;7.6;6.5;;;;;;;;;;;;;
2023/06/11 02:42:18;;;;;;;7.7;6.5;;;;;;;;;;;;;
2023/06/11 02:44:43;;;;;;;6.4;5.8;;;;;;;;;;;;;
2023/06/11 02:47:09;;;;;;;7.5;6.6;;;;;;;;;;;;;
2023/06/11 02:49:34;;;;;;;8.5;6.6;;;;;;;;;;;;;
2023/06/11 02:52:01;;;;;;;7.5;6.3;;;;;;;;;;;;;
2023/06/11 02:54:26;;;;;;;6.9;6.2;;;;;;;;;;;;;
2023/06/11 02:56:51;;;;;;;6.5;5.8;;;;;;;;;;;;;
2023/06/11 02:59:16;;;;;;;7.1;6.2;;;;;;;;;;;;;
2023/06/11 03:01:43;;;;;;;7.9;6.3;;;;;;;;;;;;;
2023/06/11 03:04:08;;;;;;;6.9;6.2;;;;;;;;;;;;;
2023/06/11 03:06:36;;;;;;;7.4;6.4;;;;;;;;;;;;;
2023/06/11 03:09:01;;;;;;;7.6;6.8;;;;;;;;;;;;;
2023/06/11 03:11:27;;;;;;;7.1;6.4;;;;;;;;;;;;;
2023/06/11 03:13:52;;;;;;;8.2;6.3;;;;;;;;;;;;;
2023/06/11 03:16:19;;;;;;;7.3;6.6;;;;;;;;;;;;;
2023/06/11 03:18:44;;;;;;;7.4;6.6;;;;;;;;;;;;;
2023/06/11 03:21:09;;;;;;;7.3;6.2;;;;;;;;;;;;;
2023/06/11 03:23:34;;;;;;;7.6;6.5;;;;;;;;;;;;;
2023/06/11 03:26:00;;;;;;;7.4;6.3;;;;;;;;;;;;;
2023/06/11 03:28:26;;;;;;;6.6;5.9;;;;;;;;;;;;;
2023/06/11 03:30:51;;;;;;;8.6;6.3;;;;;;;;;;;;;
2023/06/11 03:35:41;;;;;;;6.2;5.6;;;;;;;;;;;;;
2023/06/11 03:38:07;;;;;;;6.8;6.1;;;;;;;;;;;;;
2023/06/11 03:40:33;;;;;;;6.5;5.8;;;;;;;;;;;;;
2023/06/11 03:42:58;;;;;;;8.4;6.8;;;;;;;;;;;;;
2023/06/11 03:45:23;;;;;;;7.1;6.4;;;;;;;;;;;;;
2023/06/11 03:47:51;;;;;;;7.1;6.1;;;;;;;;;;;;;
2023/06/11 03:50:13;;;;;;;7.5;6.5;;;;;;;;;;;;;
2023/06/11 03:52:41;;;;;;;7.1;6.4;;;;;;;;;;;;;
2023/06/11 03:55:06;;;;;;;7.1;6;;;;;;;;;;;;;
2023/06/11 03:57:32;;;;;;;6.7;6;;;;;;;;;;;;;
2023/06/11 03:59:58;;;;;;;6.8;6.1;;;;;;;;;;;;;
2023/06/11 04:02:37;;;;;;;7.3;6.6;;;;;;;13.73;95.35156;936.6052;;;;
2023/06/11 04:05:06;;;;;;;7;6.1;;;;;;;13.84;94.97461;936.6121;;;;
2023/06/11 04:07:31;;;;;;;7.1;6.3;;;;;;;13.82;94.77246;936.6378;;;;
2023/06/11 04:10:00;;;;;;;6.7;6;;;;;;;13.58;95.8584;936.6384;;;;
2023/06/11 04:12:28;;;;;;;7.7;6.5;;;;;;;13.58;96.12305;936.6169;;;;
2023/06/11 04:15:01;;;;;;;7.1;6.3;;;;;;;13.66;95.50781;936.6463;;;;
2023/06/11 04:17:25;;;;;;;6.7;6;;;;;;;13.63;95.16699;936.6521;;;;
2023/06/11 04:19:50;;;;;;;6.5;5.6;;;;;;;13.52;95.66211;936.6179;;;;
2023/06/11 04:22:15;;;;;;;6.7;6;;;;;;;13.59;95.37695;936.652;;;;
2023/06/11 04:24:46;;;;;;;6.9;5.8;;;;;;;13.38;95.83691;936.6726;;;;
2023/06/11 04:27:11;;;;;;;8.5;6.6;;;;;;;13.42;96.16895;936.6719;;;;
2023/06/11 04:29:40;;;;;;;6.4;5.7;;;;;;;13.66;95.25488;936.6351;;;;
2023/06/11 04:32:09;;;;;;;6.8;5.5;;;;;;;13.77;94.54297;936.6425;;;;
2023/06/11 04:34:38;;;;;;;7.6;5.6;;;;;;;13.91;93.91797;936.5508;;;;
2023/06/11 04:37:02;;;;;;;6.4;5.7;;;;;;;13.9;93.6377;936.6229;;;;
2023/06/11 04:39:32;;;;;;;6.4;5.4;;;;;;;13.86;93.72461;936.6696;;;;
2023/06/11 04:41:58;;;;;;;7.5;5.7;;;;;;;14.04;93.42773;936.6096;;;;
2023/06/11 04:44:23;;;;;;;5.6;5.1;;;;;;;13.99;93.3252;936.6263;;;;
2023/06/11 04:46:47;;;;;;;6;5.4;;;;;;;14.18;92.80176;936.5861;;;;
2023/06/11 04:49:20;;;;;;;5.9;5.3;;;;;;;14.23;92.25879;936.5492;;;;
2023/06/11 04:51:40;;;;;;;7;5.9;;;;;;;14.2;92.59863;936.5908;;;;
2023/06/11 04:54:07;;;;;;;7.2;5.9;;;;;;;14.21;92.45117;936.5698;;;;
2023/06/11 04:56:33;;;;;;;6.9;6.2;;;;;;;14.34;92.96094;936.5572;;;;
2023/06/11 04:58:58;;;;;;;6.5;5.6;;;;;;;14.47;92.01074;936.5856;;;;
2023/06/11 05:01:32;;;;;;;7.7;6.9;;;;;;;14.64;93.49707;936.6077;;;;
2023/06/11 05:03:54;;;;;;;6.5;4.9;;;;;;;15.39;91.90527;936.5253;;;;
2023/06/11 05:06:23;;;;;;;5.8;4.8;;;;;;;16.35;86.00977;936.5428;;;;
2023/06/11 05:08:47;;;;;;;5.8;4.6;;;;;;;17.23;80.66113;936.6077;;;;
2023/06/11 05:11:14;;;;;;;4.7;4.3;;;;;;;17.62;78.08691;936.6131;;;;
2023/06/11 05:13:39;;;;;;;4.9;4.3;;;;;;;17.5;78.65723;936.5664;;;;
2023/06/11 05:16:10;;;;;;;4.8;4.4;;;;;;;17.54;79.4082;936.6106;;;;
2023/06/11 05:18:34;;;;;;;4.9;4.4;;;;;;;17.43;78.93555;936.5733;;;;
2023/06/11 05:21:01;;;;;;;5.1;4.2;;;;;;;18.51;76.45508;936.5679;;;;
2023/06/11 05:23:29;;;;;;;6.4;4.6;;;;;;;19.24;72.25;936.4597;;;;
2023/06/11 05:25:51;;;;;;;5.6;4.5;;;;;;;19.32;73.25195;936.5672;;;;
2023/06/11 05:28:21;;;;;;;4.4;4;;;;;;;18.88;74.70313;936.4961;;;;
2023/06/11 05:30:47;;;;;;;6.1;4.3;;;;;;;18.96;74.68262;936.5811;;;;
2023/06/11 05:33:12;;;;;;;6;4.4;;;;;;;18.5;75.22168;936.539;;;;
2023/06/11 05:35:40;;;;;;;5.2;4.7;;;;;;;18.23;74.97656;936.6403;;;;
2023/06/11 06:01:51;;;;;;;4.7;4.3;;;;;;;21.47;63.44824;936.7233;;;;
2023/06/11 06:04:42;;;;;;;4.7;4.2;;;;;;;22.01;62.98633;936.7108;;;;
2023/06/11 06:07:07;;;;;;;4.3;3.9;;;;;;;22.1;60.43164;936.7008;;;;
2023/06/11 06:09:39;;;;;;;4.4;4;;;;;;;22.02;63.31543;936.7363;;;;
2023/06/11 06:12:04;;;;;;;5.4;4.6;;;;;;;21.32;64.88867;936.7339;;;;
2023/06/11 06:14:29;;;;;;;5.3;4.8;;;;;;;21.39;66.02246;936.7866;;;;
2023/06/11 06:25:25;;;;;;;6.7;6.1;;;;;;;22.81;62.61914;936.7177;;;;
2023/06/11 06:27:50;;;;;;;7.4;6.6;;;;;;;21.85;65.27148;936.7411;;;;
2023/06/11 06:30:21;;;;;;;8.8;7.3;;;;;;;22.26;64.68652;936.7349;;;;
2023/06/11 06:32:53;;;;;;;7.5;6.7;;;;;;;22.79;63.17871;936.7104;;;;
2023/06/11 06:35:23;;;;;;;9.8;7.3;;;;;;;22.45;62.4043;936.7837;;;;
2023/06/11 06:37:53;;;;;;;7.4;6.7;;;;;;;22.08;63.46582;936.7216;;;;
2023/06/11 06:40:25;;;;;;;7.6;6.8;;;;;;;20.91;67.54004;936.7971;;;;
2023/06/11 06:42:53;;;;;;;9.1;7.3;;;;;;;21.35;69.5752;936.8113;;;;
2023/06/11 06:45:20;;;;;;;9.3;7.3;;;;;;;22;65.42188;936.8401;;;;
2023/06/11 06:47:48;;;;;;;8.5;7.6;;;;;;;22.65;62.32617;936.7803;;;;
2023/06/11 06:50:14;;;;;;;7.8;6.9;;;;;;;21.73;64.59863;936.7823;;;;
2023/06/11 06:52:46;;;;;;;10.2;8;;;;;;;21.84;65.59766;936.7941;;;;
2023/06/11 06:55:26;;;;;;;8.4;7.2;;;;;;;22.1;64.28906;936.7841;;;;
2023/06/11 06:57:54;;;;;;;8.8;7.3;;;;;;;21.77;65.48242;936.7672;;;;
2023/06/11 07:00:19;;;;;;;8.4;6.7;;;;;;;23.52;60.64941;936.805;;;;
2023/06/11 07:02:48;;;;;;;10.4;7.7;;;;;;;22.33;64.09863;936.8467;;;;
2023/06/11 07:05:15;;;;;;;8.3;7.3;;;;;;;22.17;63.50195;936.8262;;;;
2023/06/11 07:07:46;;;;;;;8.3;7.4;;;;;;;22.43;64.35938;936.8269;;;;
2023/06/11 07:10:17;;;;;;;8.9;7.5;;;;;;;23.08;63.66602;936.7891;;;;
2023/06/11 07:12:41;;;;;;;8.7;7.7;;;;;;;24.22;58.11719;936.7662;;;;
2023/06/11 07:15:11;;;;;;;8.4;7.1;;;;;;;23.37;60.08789;936.8569;;;;
2023/06/11 07:17:39;;;;;;;9.7;7.7;;;;;;;22.52;64.02148;936.8776;;;;
2023/06/11 07:20:07;;;;;;;8.2;7;;;;;;;24.29;59.48047;936.7833;;;;
2023/06/11 07:22:34;;;;;;;7.8;7;;;;;;;24.1;58.00684;936.7938;;;;
2023/06/11 07:25:00;;;;;;;8.1;7.3;;;;;;;24.31;58.34082;936.7222;;;;
2023/06/11 07:27:30;;;;;;;8.3;7.4;;;;;;;24.03;58.45801;936.6984;;;;
2023/06/11 07:29:59;;;;;;;8.8;7.5;;;;;;;24.15;60.85254;936.7209;;;;
2023/06/11 07:32:24;;;;;;;7.5;6.7;;;;;;;25.03;57.45508;936.743;;;;
2023/06/11 07:34:50;;;;;;;8.9;7.2;;;;;;;23.85;57.66895;936.7299;;;;
2023/06/11 07:37:17;;;;;;;8.8;7.6;;;;;;;22.31;63.13379;936.7693;;;;
2023/06/11 07:39:46;;;;;;;9.4;8;;;;;;;22.54;64.3877;936.7648;;;;
2023/06/11 07:42:11;;;;;;;9.7;7.5;;;;;;;22.59;63.8916;936.7505;;;;
2023/06/11 07:44:36;;;;;;;10.4;8.2;;;;;;;22.02;64.71094;936.7916;;;;
2023/06/11 07:47:02;;;;;;;9.1;8;;;;;;;20.91;69.54102;936.7734;;;;
2023/06/11 07:49:27;;;;;;;8.4;7.6;;;;;;;21.75;67.33008;936.7857;;;;
2023/06/11 07:51:54;;;;;;;8.9;8;;;;;;;21.91;68.33887;936.7234;;;;
2023/06/11 07:54:19;;;;;;;9;7.1;;;;;;;22.63;65.29297;936.7584;;;;
2023/06/11 07:56:47;;;;;;;8.4;7.5;;;;;;;23.94;62.2832;936.759;;;;
2023/06/11 07:59:11;;;;;;;8.6;7.1;;;;;;;24.85;57.78613;936.745;;;;
2023/06/11 08:01:39;;;;;;;8;7.2;;;;;;;24.46;56.76953;936.6758;;;;
2023/06/11 08:04:04;;;;;;;8.6;7.2;;;;;;;23.87;57.89453;936.6825;;;;
2023/06/11 08:06:29;;;;;;;8.5;7.3;;;;;;;22.73;61.96191;936.6813;;;;
2023/06/11 08:08:57;;;;;;;8.5;7.1;;;;;;;22.93;62.95215;936.5706;;;;
2023/06/11 08:11:22;;;;;;;7.9;7.1;;;;;;;23.75;61.63379;936.6372;;;;
2023/06/11 08:13:48;;;;;;;7.1;6.4;;;;;;;24.79;58.08496;936.5087;;;;
2023/06/11 08:16:15;;;;;;;8.3;7;;;;;;;25.72;57.19043;936.5309;;;;
2023/06/11 08:18:40;;;;;;;7.7;6.7;;;;;;;26.63;52.33301;936.5522;;;;
2023/06/11 08:21:06;;;;;;;6.9;6.2;;;;;;;26.53;53.1377;936.5247;;;;
2023/06/11 08:23:34;;;;;;;7.5;6;;;;;;;27.4;50.89063;936.4598;;;;
2023/06/11 08:26:00;;;;;;;6.5;5.8;;;;;;;26.76;52.63184;936.4814;;;;
2023/06/11 08:28:27;;;;;;;6.7;6.1;;;;;;;27.28;49.85742;936.4797;;;;
2023/06/11 08:30:51;;;;;;;6.4;5.8;;;;;;;26.98;49.88477;936.4936;;;;
2023/06/11 08:33:19;;;;;;;6.7;5.6;;;;;;;26.26;50.79883;936.4689;;;;
2023/06/11 08:35:44;;;;;;;6.6;6;;;;;;;25.43;53.63379;936.4554;;;;
2023/06/11 08:38:12;;;;;;;6.7;6;;;;;;;25.69;53.91211;936.4857;;;;
2023/06/11 08:40:37;;;;;;;6.9;6;;;;;;;24.45;59.23145;936.4211;;;;
2023/06/11 08:43:03;;;;;;;6.4;5.8;;;;;;;24.46;56.27441;936.4202;;;;
2023/06/11 08:45:28;;;;;;;6.9;6.2;;;;;;;23.45;59.47461;936.4158;;;;
2023/06/11 08:47:59;;;;;;;6.8;6.2;;;;;;;23.97;60.49902;936.3933;;;;
2023/06/11 08:50:26;;;;;;;7.4;6.2;;;;;;;24.67;56.44336;936.3989;;;;
2023/06/11 08:52:51;;;;;;;6.7;6;;;;;;;26.11;53.25293;936.4275;;;;
2023/06/11 08:55:23;;;;;;;7.6;5.9;;;;;;;26.97;49.89453;936.3748;;;;
2023/06/11 08:57:51;;;;;;;6.5;5.4;;;;;;;27.15;49.17969;936.392;;;;
2023/06/11 09:00:16;;;;;;;6.2;5.6;;;;;;;26.71;50.05469;936.4052;;;;
2023/06/11 09:02:50;;;;;;;7.8;5.9;;;;;;;26.07;52.25586;936.4631;;;;
2023/06/11 09:05:18;;;;;;;6.9;6.1;;;;;;;24.66;55.0625;936.348;;;;
2023/06/11 09:07:44;;;;;;;6.6;6;;;;;;;24.19;59.07813;936.3617;;;;
2023/06/11 09:10:10;;;;;;;7.1;6.1;;;;;;;23.62;61.68555;936.4135;;;;
2023/06/11 09:12:40;;;;;;;7.2;6.2;;;;;;;23.76;59.09277;936.4448;;;;
2023/06/11 09:15:14;;;;;;;9.5;6.5;;;;;;;23.13;61.08984;936.3741;;;;
2023/06/11 09:17:39;;;;;;;7.4;6.6;;;;;;;22.87;62.49609;936.4247;;;;
2023/06/11 09:20:07;;;;;;;8;5.7;;;;;;;24;61.04297;936.4109;;;;
2023/06/11 09:22:34;;;;;;;7.5;6.5;;;;;;;24;59.41992;936.4084;;;;
2023/06/11 09:24:57;;;;;;;7.2;6.1;;;;;;;23.89;59.32324;936.3497;;;;
2023/06/11 09:27:26;;;;;;;7.6;6.2;;;;;;;23.85;61.26953;936.4422;;;;
2023/06/11 09:29:51;;;;;;;6.7;6.1;;;;;;;23.92;62.15137;936.3606;;;;
2023/06/11 09:32:16;;;;;;;6.2;5.6;;;;;;;24.39;61.59277;936.3914;;;;
2023/06/11 09:34:41;;;;;;;6.5;5.8;;;;;;;25.23;58.74512;936.4255;;;;
2023/06/11 09:37:06;;;;;;;6.8;6.1;;;;;;;25.19;58.43262;936.4556;;;;
2023/06/11 09:39:35;;;;;;;7.6;6.2;;;;;;;24.83;58.93945;936.3923;;;;
2023/06/11 09:42:03;;;;;;;6.9;6.2;;;;;;;24.59;59.36816;936.4048;;;;
2023/06/11 09:44:29;;;;;;;6.5;5.8;;;;;;;24.65;58.00781;936.3781;;;;
2023/06/11 09:46:54;;;;;;;6.8;5.8;;;;;;;24.79;58.49902;936.392;;;;
2023/06/11 09:49:22;;;;;;;5.6;5;;;;;;;25.35;57.08398;936.369;;;;
2023/06/11 09:51:47;;;;;;;9.5;6.1;;;;;;;25.41;56.79688;936.3558;;;;
2023/06/11 09:54:13;;;;;;;6.6;5.8;;;;;;;26.18;54.74023;936.4253;;;;
2023/06/11 09:56:38;;;;;;;6.5;5.8;;;;;;;26.05;54.67676;936.4334;;;;
2023/06/11 09:59:03;;;;;;;5.9;5.2;;;;;;;25.27;57.79199;936.4529;;;;
2023/06/11 10:01:30;;;;;;;7.9;5.7;;;;;;;24.78;57.71875;936.4088;;;;
2023/06/11 10:03:59;;;;;;;7.1;5.5;;;;;;;24.66;59.20117;936.4441;;;;
2023/06/11 10:06:24;;;;;;;6.8;6;;;;;;;24.6;58.37891;936.4272;;;;
2023/06/11 10:08:50;;;;;;;5.8;5.3;;;;;;;24.88;57.22266;936.4158;;;;
2023/06/11 10:11:17;;;;;;;6.9;5.7;;;;;;;24.63;57.87402;936.3478;;;;
2023/06/11 10:13:42;;;;;;;6.5;5.6;;;;;;;24.61;58.30957;936.3811;;;;
2023/06/11 10:16:07;;;;;;;6.7;6;;;;;;;24.25;60.18262;936.3308;;;;
2023/06/11 10:18:32;;;;;;;6.9;5.5;;;;;;;24.39;57.32715;936.3986;;;;
2023/06/11 10:21:00;;;;;;;7.7;5.9;;;;;;;24.3;58.91602;936.4012;;;;
2023/06/11 10:23:30;;;;;;;7;5.9;;;;;;;24.14;59.04785;936.4154;;;;
2023/06/11 10:25:57;;;;;;;6.2;5.1;;;;;;;24.39;59.2002;936.3934;;;;
2023/06/11 10:28:23;;;;;;;6.3;5.3;;;;;;;24.81;58.83105;936.4149;;;;
2023/06/11 10:30:48;;;;;;;5.8;5.3;;;;;;;24.57;57.52539;936.4352;;;;
2023/06/11 10:33:13;;;;;;;6.6;5.3;;;;;;;24.36;58.70215;936.4144;;;;
2023/06/11 10:35:38;;;;;;;5.9;5.3;;;;;;;24.22;57.68164;936.4824;;;;
2023/06/11 10:38:08;;;;;;;5.7;5.2;;;;;;;24.32;58.65918;936.5273;;;;
2023/06/11 10:40:35;;;;;;;7.4;5.2;;;;;;;24.5;57.10352;936.5257;;;;
2023/06/11 10:43:02;;;;;;;6;5.4;;;;;;;24.37;56.27539;936.6011;;;;
2023/06/11 10:45:25;;;;;;;10.2;5.6;;;;;;;23.91;58.125;936.5342;;;;
2023/06/11 10:47:55;;;;;;;7.1;6.2;;;;;;;23.26;60.6709;936.4886;;;;
2023/06/11 10:50:19;;;;;;;6.4;5.7;;;;;;;22.69;61.53418;936.4668;;;;
2023/06/11 10:52:44;;;;;;;6.7;5.9;;;;;;;22.39;64.0957;936.4449;;;;
2023/06/11 10:55:10;;;;;;;6.9;5.7;;;;;;;22.49;63.69922;936.4072;;;;
2023/06/11 10:57:39;;;;;;;7.4;6.7;;;;;;;22.37;65.17285;936.4675;;;;
2023/06/11 11:00:07;;;;;;;7.4;6.1;;;;;;;22.35;63.81934;936.5214;;;;
2023/06/11 11:02:29;;;;;;;7.7;5.9;;;;;;;22.17;63.85352;936.4758;;;;
2023/06/11 11:04:55;;;;;;;7.4;6.1;;;;;;;22.42;63.93555;936.4073;;;;
2023/06/11 11:07:19;;;;;;;7;5.9;;;;;;;22.49;62.33887;936.3546;;;;
2023/06/11 11:09:48;;;;;;;6.5;5.9;;;;;;;22.6;62.8125;936.3468;;;;
2023/06/11 11:12:14;;;;;;;7.6;5.9;;;;;;;22.74;62.5498;936.3716;;;;
2023/06/11 11:14:40;;;;;;;6.6;5.9;;;;;;;22.8;61.83008;936.3491;;;;
2023/06/11 11:17:05;;;;;;;7.3;6;;;;;;;22.54;62.58105;936.4288;;;;
2023/06/11 11:19:34;;;;;;;7;6.3;;;;;;;22.47;62.32422;936.395;;;;
2023/06/11 11:21:57;;;;;;;6.4;5.6;;;;;;;22.46;63.64844;936.3451;;;;
2023/06/11 11:24:23;;;;;;;6.3;5.7;;;;;;;22.39;63.69531;936.2894;;;;
2023/06/11 11:26:51;;;;;;;7.1;5.7;;;;;;;22.43;63.72559;936.2173;;;;
2023/06/11 11:29:16;;;;;;;6.5;5.9;;;;;;;22.28;63.44531;936.2523;;;;
2023/06/11 11:31:42;;;;;;;8.5;6.6;;;;;;;22.21;64.23438;936.222;;;;
2023/06/11 11:34:07;;;;;;;10.3;6;;;;;;;21.88;64.7373;936.2737;;;;
2023/06/11 11:36:37;;;;;;;6.3;5.5;;;;;;;21.73;64.75;936.2831;;;;
2023/06/11 11:39:02;;;;;;;8.1;6;;;;;;;22.21;64.48047;936.192;;;;
2023/06/11 11:41:29;;;;;;;7;5.6;;;;;;;22.48;62.09082;936.2106;;;;
2023/06/11 11:43:55;;;;;;;6;5.4;;;;;;;22.23;62.65527;936.1883;;;;
2023/06/11 11:46:20;;;;;;;6.4;5.8;;;;;;;22.09;62.97461;936.2518;;;;
2023/06/11 11:48:46;;;;;;;7.9;5.5;;;;;;;22.2;62.34473;936.1583;;;;
2023/06/11 11:51:11;;;;;;;6;5.4;;;;;;;22.36;61.81543;936.1218;;;;
2023/06/11 11:53:36;;;;;;;7.3;5.4;;;;;;;22.3;63.37891;936.0589;;;;
2023/06/11 11:56:03;;;;;;;6;5.4;;;;;;;22.55;60.99805;936.0453;;;;
2023/06/11 11:58:28;;;;;;;6.5;5.3;;;;;;;22.62;61.27637;935.967;;;;
2023/06/11 12:00:56;;;;;;;5.9;5.2;;;;;;;22.96;62.1709;935.8652;;;;
2023/06/11 12:03:21;;;;;;;5.6;5.1;;;;;;;23.47;59.33691;935.8896;;;;
2023/06/11 12:05:47;;;;;;;5.4;4.8;;;;;;;23.87;59.02539;935.9408;;;;
2023/06/11 12:08:14;;;;;;;5.7;4.6;;;;;;;24.1;56.58203;935.9444;;;;
2023/06/11 12:10:39;;;;;;;5.7;4.5;;;;;;;23.61;56.66016;936.0245;;;;
2023/06/11 12:13:07;;;;;;;6.2;4.6;;;;;;;23.42;57.24805;935.9331;;;;
2023/06/11 12:15:32;;;;;;;5.3;4.8;;;;;;;;;;;;;
2023/06/11 12:17:57;;;;;;;6;4.8;;;;;;;22.84;60.30957;935.8752;;;;
2023/06/11 12:20:22;;;;;;;6.8;5.3;;;;;;;23.16;58.93164;935.8441;;;;
2023/06/11 12:22:51;;;;;;;5.3;4.8;;;;;;;23.12;57.84473;935.866;;;;
2023/06/11 12:25:19;;;;;;;5;4.5;;;;;;;23.29;58.01953;935.8356;;;;
2023/06/11 12:27:47;;;;;;;4.7;4.2;;;;;;;23.5;57.10645;935.7508;;;;
2023/06/11 12:30:12;;;;;;;5.9;4.6;;;;;;;23.48;57.77441;935.9103;;;;
2023/06/11 12:32:41;;;;;;;5.6;5;;;;;;;23.17;57.55664;935.8812;;;;
2023/06/11 12:35:05;;;;;;;5.7;5.2;;;;;;;23.08;58.78027;935.8264;;;;
2023/06/11 12:37:31;;;;;;;6.3;5.1;;;;;;;23.17;57.7334;935.813;;;;
2023/06/11 12:39:58;;;;;;;5.1;4.7;;;;;;;23.17;56.875;935.7698;;;;
2023/06/11 12:42:27;;;;;;;5.5;4.4;;;;;;;23.76;56.77441;935.808;;;;
2023/06/11 12:44:50;;;;;;;5.4;4.5;;;;;;;24.24;52.40625;935.7346;;;;
2023/06/11 12:47:15;;;;;;;6.7;4.1;;;;;;;24.71;53.68848;935.7787;;;;
2023/06/11 12:49:40;;;;;;;4.9;4.2;;;;;;;24.9;52.25977;935.7347;;;;
2023/06/11 12:52:06;;;;;;;6.1;4.4;;;;;;;24.92;52.47559;935.8159;;;;
2023/06/11 12:54:31;;;;;;;6.8;4;;;;;;;25.18;52.57617;935.8272;;;;
2023/06/11 12:56:57;;;;;;;4.8;4.3;;;;;;;25.19;50.97168;935.7238;;;;
2023/06/11 12:59:22;;;;;;;6.7;4.2;;;;;;;24.84;51.19238;935.7188;;;;
2023/06/11 13:01:47;;;;;;;5.4;4.3;;;;;;;24.87;52.54004;935.741;;;;
2023/06/11 13:04:15;;;;;;;6.9;4.3;;;;;;;24.85;51.40527;935.6547;;;;
2023/06/11 13:06:41;;;;;;;4.8;4.3;;;;;;;25.18;48.65723;935.6192;;;;
2023/06/11 13:09:07;;;;;;;5.2;4.4;;;;;;;25.46;50.95508;935.603;;;;
2023/06/11 13:11:32;;;;;;;5.4;4.2;;;;;;;25.39;51.05371;935.6439;;;;
2023/06/11 13:14:00;;;;;;;4.2;3.8;;;;;;;25.65;49.10938;935.5803;;;;
2023/06/11 13:16:25;;;;;;;5.2;4.1;;;;;;;25.43;49.95996;935.5945;;;;
2023/06/11 13:18:50;;;;;;;4.5;4.1;;;;;;;25.23;50.24512;935.5974;;;;
2023/06/11 13:21:15;;;;;;;4.5;4.1;;;;;;;25.16;48.92676;935.634;;;;
2023/06/11 13:23:42;;;;;;;4.9;4.4;;;;;;;24.9;48.85059;935.627;;;;
2023/06/11 13:26:07;;;;;;;5.6;4.2;;;;;;;24.92;49.95117;935.7263;;;;
2023/06/11 13:28:33;;;;;;;4.9;4.2;;;;;;;25.17;48.63281;935.623;;;;
2023/06/11 13:30:59;;;;;;;5.5;4.5;;;;;;;25.08;47.86719;935.6975;;;;
2023/06/11 13:33:29;;;;;;;5.1;4.4;;;;;;;24.7;49.04102;935.6701;;;;
2023/06/11 13:35:53;;;;;;;6.8;4.2;;;;;;;24.5;49.32617;935.5656;;;;
2023/06/11 13:38:22;;;;;;;4.7;4.2;;;;;;;24.73;50.3291;935.6281;;;;
2023/06/11 13:40:47;;;;;;;4.2;3.6;;;;;;;24.81;46.1748;935.5295;;;;
2023/06/11 13:43:14;;;;;;;7.2;4;;;;;;;24.91;48.55664;935.6037;;;;
2023/06/11 13:45:39;;;;;;;5.3;4.2;;;;;;;25.12;47.3291;935.6238;;;;
2023/06/11 13:48:06;;;;;;;5.4;3.8;;;;;;;25.41;44.89063;935.5963;;;;
2023/06/11 13:50:32;;;;;;;4.7;4;;;;;;;25.57;44.61133;935.5156;;;;
2023/06/11 13:53:00;;;;;;;4.8;3.9;;;;;;;25.66;45.66113;935.5345;;;;
2023/06/11 13:55:25;;;;;;;4.5;3.9;;;;;;;25.88;43.21191;935.5374;;;;
2023/06/11 13:57:53;;;;;;;4.4;4;;;;;;;26.04;45.51074;935.4935;;;;
2023/06/11 14:00:18;;;;;;;5.4;3.4;;;;;;;26.27;44.97754;935.5873;;;;
2023/06/11 14:02:49;;;;;;;4.7;3.6;;;;;;;26.46;42.47363;935.5352;;;;
2023/06/11 14:05:19;;;;;;;5;3.7;;;;;;;26.77;42.83691;935.5981;;;;
2023/06/11 14:07:48;;;;;;;5;3.7;;;;;;;26.9;40.9043;935.4531;;;;
2023/06/11 14:10:16;;;;;;;3.9;3.4;;;;;;;26.91;40.67969;935.4992;;;;
2023/06/11 14:12:41;;;;;;;5.7;3.2;;;;;;;27;41.25684;935.4723;;;;
2023/06/11 14:15:07;;;;;;;4.4;4;;;;;;;26.46;40.63965;935.5025;;;;
2023/06/11 14:17:39;;;;;;;4.2;3.5;;;;;;;26.06;42.03418;935.4495;;;;
2023/06/11 14:20:00;;;;;;;3.3;3;;;;;;;25.66;41.63184;935.4897;;;;
2023/06/11 14:22:28;;;;;;;4.4;3.5;;;;;;;25.42;42.75391;935.5093;;;;
2023/06/11 14:24:53;;;;;;;6.3;3.4;;;;;;;24.99;43.60938;935.4851;;;;
2023/06/11 14:27:20;;;;;;;3.9;3.3;;;;;;;25.02;45.4541;935.4989;;;;
2023/06/11 14:29:45;;;;;;;3.5;3.2;;;;;;;25.3;43.66309;935.4707;;;;
2023/06/11 14:32:10;;;;;;;3.6;3.3;;;;;;;25.45;43.37109;935.4225;;;;
2023/06/11 14:34:36;;;;;;;4.6;3.2;;;;;;;25.61;41.59082;935.3724;;;;
2023/06/11 14:37:06;;;;;;;3.7;3.3;;;;;;;25.87;41.61426;935.366;;;;
2023/06/11 14:39:31;;;;;;;3.9;3.3;;;;;;;25.71;41.88379;935.3738;;;;
2023/06/11 14:41:58;;;;;;;4.1;3.7;;;;;;;25.9;41.88867;935.3681;;;;
2023/06/11 14:44:23;;;;;;;4.4;3.3;;;;;;;25.88;40.91797;935.3546;;;;
2023/06/11 14:46:51;;;;;;;3.3;3.1;;;;;;;25.87;41.30762;935.3372;;;;
2023/06/11 14:49:15;;;;;;;5.1;3.6;;;;;;;25.72;42.01465;935.327;;;;
2023/06/11 14:51:42;;;;;;;4.3;2.9;;;;;;;25.79;40.56738;935.3599;;;;
2023/06/11 14:54:08;;;;;;;5.3;3.1;;;;;;;25.81;40.62793;935.3212;;;;
2023/06/11 14:56:36;;;;;;;3.3;3;;;;;;;25.42;42.68359;935.4252;;;;
2023/06/11 14:59:01;;;;;;;4.5;3.2;;;;;;;25.45;42.56836;935.3939;;;;
2023/06/11 15:01:30;;;;;;;3.5;3;;;;;;;25.45;42.22559;935.4177;;;;
2023/06/11 15:03:55;;;;;;;5;3.7;;;;;;;25.55;43.21582;935.4367;;;;
2023/06/11 15:06:26;;;;;;;5.3;3.6;;;;;;;25.41;42.19824;935.4542;;;;
2023/06/11 15:08:53;;;;;;;8;3.7;;;;;;;25.48;41.74414;935.4053;;;;
2023/06/11 15:11:17;;;;;;;5.3;3.6;;;;;;;25.3;41.14941;935.442;;;;
2023/06/11 15:13:42;;;;;;;4.4;3;;;;;;;25.3;41.30176;935.3803;;;;
2023/06/11 15:16:11;;;;;;;3.3;3;;;;;;;25.04;42.1875;935.372;;;;
2023/06/11 15:18:36;;;;;;;4.4;3.3;;;;;;;24.92;42.6123;935.4044;;;;
2023/06/11 15:21:04;;;;;;;5.4;3.1;;;;;;;24.87;42.53711;935.3834;;;;
2023/06/11 15:23:34;;;;;;;3.7;3.3;;;;;;;25;43.22168;935.4514;;;;
2023/06/11 15:25:59;;;;;;;3.7;3.3;;;;;;;25.01;41.14551;935.4061;;;;
2023/06/11 15:28:25;;;;;;;3.5;3.2;;;;;;;24.91;42.18652;935.3921;;;;
2023/06/11 15:30:50;;;;;;;3.5;3.2;;;;;;;24.64;43.34082;935.4467;;;;
2023/06/11 15:33:17;;;;;;;5.5;3.2;;;;;;;24.57;43.54492;935.4232;;;;
2023/06/11 15:35:41;;;;;;;4.3;3.3;;;;;;;24.63;41.77051;935.3439;;;;
2023/06/11 15:38:11;;;;;;;4.9;3.1;;;;;;;24.66;42.56445;935.3268;;;;
2023/06/11 15:40:41;;;;;;;4.3;3.4;;;;;;;24.7;41.64746;935.3036;;;;
2023/06/11 15:43:06;;;;;;;4.1;3.3;;;;;;;24.66;41.97461;935.3047;;;;
2023/06/11 15:45:40;;;;;;;5.1;3.6;;;;;;;24.56;43.26074;935.3781;;;;
2023/06/11 15:48:10;;;;;;;3.8;3.4;;;;;;;24.32;43.36719;935.339;;;;
2023/06/11 15:50:40;;;;;;;3.4;3.1;;;;;;;24.23;43.65332;935.3455;;;;
2023/06/11 15:53:05;;;;;;;4.3;3.1;;;;;;;24.26;43.43262;935.2723;;;;
2023/06/11 15:55:34;;;;;;;4.2;3.7;;;;;;;24.33;43.3457;935.3311;;;;
2023/06/11 15:57:59;;;;;;;3.9;3.5;;;;;;;24.23;43.14844;935.2996;;;;
2023/06/11 16:00:30;;;;;;;4.3;3.3;;;;;;;24.31;43.25977;935.3649;;;;
2023/06/11 16:03:03;;;;;;;3.5;3.2;;;;;;;24.35;43.33398;935.3906;;;;
2023/06/11 16:05:33;;;;;;;4.5;3.2;;;;;;;24.26;43.63281;935.3359;;;;
2023/06/11 16:08:01;;;;;;;4.6;3.1;;;;;;;24.11;43.1582;935.3998;;;;
2023/06/11 16:10:29;;;;;;;4.1;3.2;;;;;;;23.82;44.22559;935.3735;;;;